createdAt,value
2023-08-04T00:00:51.847Z,16.93
2023-08-04T00:01:51.814Z,16.93
2023-08-04T00:02:51.640Z,16.90
2023-08-04T00:03:51.687Z,16.90
2023-08-04T00:04:51.660Z,16.91
2023-08-04T00:05:51.606Z,16.91
2023-08-04T00:06:51.626Z,16.90
2023-08-04T00:07:51.626Z,16.91
2023-08-04T00:08:51.625Z,16.91
2023-08-04T00:09:51.608Z,16.91
2023-08-04T00:10:51.564Z,16.89
2023-08-04T00:11:51.627Z,16.90
2023-08-04T00:12:51.727Z,16.86
2023-08-04T00:13:51.604Z,16.87
2023-08-04T00:14:51.501Z,16.89
2023-08-04T00:15:51.578Z,16.89
2023-08-04T00:16:51.485Z,16.90
2023-08-04T00:17:51.656Z,16.90
2023-08-04T00:18:51.661Z,16.93
2023-08-04T00:19:51.503Z,16.93
2023-08-04T00:20:51.443Z,16.98
2023-08-04T00:21:51.448Z,16.98
2023-08-04T00:22:51.472Z,17.02
2023-08-04T00:23:51.414Z,17.05
2023-08-04T00:24:51.410Z,17.08
2023-08-04T00:25:51.492Z,17.08
2023-08-04T00:26:51.394Z,17.11
2023-08-04T00:27:51.473Z,17.11
2023-08-04T00:28:51.399Z,17.12
2023-08-04T00:29:51.382Z,17.14
2023-08-04T00:30:51.340Z,17.14
2023-08-04T00:31:51.400Z,17.16
2023-08-04T00:32:51.420Z,17.14
2023-08-04T00:33:51.337Z,17.17
2023-08-04T00:34:51.308Z,17.17
2023-08-04T00:35:51.348Z,17.19
2023-08-04T00:36:51.353Z,17.19
2023-08-04T00:37:51.318Z,17.20
2023-08-04T00:38:51.478Z,17.22
2023-08-04T00:39:51.307Z,17.22
2023-08-04T00:40:51.232Z,17.24
2023-08-04T00:41:51.322Z,17.26
2023-08-04T00:42:51.318Z,17.30
2023-08-04T00:43:51.258Z,17.30
2023-08-04T00:44:51.221Z,17.31
2023-08-04T00:45:51.220Z,17.30
2023-08-04T00:46:51.180Z,17.31
2023-08-04T00:47:51.570Z,17.35
2023-08-04T00:48:51.226Z,17.33
2023-08-04T00:49:51.173Z,17.33
2023-08-04T00:50:51.182Z,17.35
2023-08-04T00:51:51.137Z,17.33
2023-08-04T00:52:51.306Z,17.37
2023-08-04T00:53:51.219Z,17.37
2023-08-04T00:54:51.086Z,17.38
2023-08-04T00:55:51.126Z,17.37
2023-08-04T00:56:51.169Z,17.41
2023-08-04T00:57:51.105Z,17.39
2023-08-04T00:58:51.098Z,17.41
2023-08-04T00:59:51.056Z,17.41
2023-08-04T01:00:51.016Z,17.41
2023-08-04T01:01:51.450Z,17.41
2023-08-04T01:02:51.040Z,17.41
2023-08-04T01:03:51.008Z,17.41
2023-08-04T01:04:50.938Z,17.41
2023-08-04T01:05:50.937Z,17.45
2023-08-04T01:06:51.001Z,17.44
2023-08-04T01:07:50.950Z,17.44
2023-08-04T01:08:50.957Z,17.44
2023-08-04T01:09:50.904Z,17.44
2023-08-04T01:10:51.012Z,17.46
2023-08-04T01:11:50.907Z,17.44
2023-08-04T01:12:50.901Z,17.45
2023-08-04T01:13:50.890Z,17.44
2023-08-04T01:14:50.907Z,17.46
2023-08-04T01:15:50.960Z,17.45
2023-08-04T01:16:50.882Z,17.48
2023-08-04T01:17:50.867Z,17.49
2023-08-04T01:18:50.926Z,17.48
2023-08-04T01:19:50.848Z,17.48
2023-08-04T01:20:50.827Z,17.48
2023-08-04T01:21:50.914Z,17.51
2023-08-04T01:22:50.749Z,17.48
2023-08-04T01:23:50.757Z,17.48
2023-08-04T01:24:50.831Z,17.49
2023-08-04T01:25:50.740Z,17.49
2023-08-04T01:26:50.734Z,17.49
2023-08-04T01:27:51.015Z,17.49
2023-08-04T01:28:50.711Z,17.54
2023-08-04T01:29:50.727Z,17.54
2023-08-04T01:30:50.686Z,17.56
2023-08-04T01:31:50.722Z,17.59
2023-08-04T01:32:50.768Z,17.57
2023-08-04T01:33:50.754Z,17.59
2023-08-04T01:34:50.817Z,17.60
2023-08-04T01:35:50.711Z,17.59
2023-08-04T01:36:50.722Z,17.64
2023-08-04T01:37:50.694Z,17.64
2023-08-04T01:38:50.784Z,17.67
2023-08-04T01:39:50.644Z,17.67
2023-08-04T01:40:50.572Z,17.67
2023-08-04T01:41:50.691Z,17.67
2023-08-04T01:42:50.604Z,17.65
2023-08-04T01:43:50.644Z,17.65
2023-08-04T01:44:50.628Z,17.65
2023-08-04T01:45:50.726Z,17.67
2023-08-04T01:46:50.600Z,17.65
2023-08-04T01:47:50.626Z,17.65
2023-08-04T01:48:50.976Z,17.67
2023-08-04T01:49:50.699Z,17.67
2023-08-04T01:50:50.758Z,17.68
2023-08-04T01:51:50.594Z,17.65
2023-08-04T01:52:50.482Z,17.68
2023-08-04T01:53:50.587Z,17.68
2023-08-04T01:54:50.684Z,17.71
2023-08-04T01:55:50.430Z,17.73
2023-08-04T01:56:50.352Z,17.73
2023-08-04T01:57:50.378Z,17.73
2023-08-04T01:58:50.383Z,17.76
2023-08-04T01:59:50.380Z,17.76
2023-08-04T02:00:50.381Z,17.78
2023-08-04T02:01:50.326Z,17.76
2023-08-04T02:02:50.520Z,17.78
2023-08-04T02:03:50.303Z,17.76
2023-08-04T02:04:50.267Z,17.78
2023-08-04T02:05:50.316Z,17.78
2023-08-04T02:06:50.255Z,17.78
2023-08-04T02:07:50.258Z,17.78
2023-08-04T02:10:08.328Z,17.80
2023-08-04T02:11:09.246Z,17.79
2023-08-04T02:12:09.103Z,17.82
2023-08-04T02:13:09.079Z,17.83
2023-08-04T02:14:09.084Z,17.83
2023-08-04T02:15:09.083Z,17.85
2023-08-04T02:16:09.089Z,17.83
2023-08-04T02:17:09.028Z,17.82
2023-08-04T02:18:09.044Z,17.80
2023-08-04T02:19:09.008Z,17.82
2023-08-04T02:20:09.045Z,17.80
2023-08-04T02:21:08.997Z,17.82
2023-08-04T02:23:18.981Z,17.80
2023-08-04T02:24:19.948Z,17.82
2023-08-04T02:25:19.965Z,17.83
2023-08-04T02:26:19.915Z,17.80
2023-08-04T02:27:19.835Z,17.82
2023-08-04T02:28:19.864Z,17.80
2023-08-04T02:29:19.829Z,17.82
2023-08-04T02:30:19.832Z,17.79
2023-08-04T02:31:19.865Z,17.78
2023-08-04T02:32:19.812Z,17.73
2023-08-04T02:33:19.811Z,17.76
2023-08-04T02:34:19.823Z,17.75
2023-08-04T02:35:19.775Z,17.73
2023-08-04T02:36:19.770Z,17.71
2023-08-04T02:37:19.735Z,17.70
2023-08-04T02:38:19.729Z,17.67
2023-08-04T02:39:19.717Z,17.68
2023-08-04T02:40:19.715Z,17.71
2023-08-04T02:41:19.712Z,17.70
2023-08-04T02:42:19.688Z,17.70
2023-08-04T02:43:19.679Z,17.68
2023-08-04T02:44:19.702Z,17.70
2023-08-04T02:45:19.677Z,17.68
2023-08-04T02:46:19.674Z,17.70
2023-08-04T02:47:19.653Z,17.68
2023-08-04T02:48:19.666Z,17.67
2023-08-04T02:49:19.620Z,17.67
2023-08-04T02:50:19.652Z,17.63
2023-08-04T02:51:19.592Z,17.60
2023-08-04T02:52:19.585Z,17.57
2023-08-04T02:53:19.572Z,17.60
2023-08-04T02:54:19.562Z,17.60
2023-08-04T02:55:19.590Z,17.63
2023-08-04T02:56:19.541Z,17.64
2023-08-04T02:57:19.526Z,17.63
2023-08-04T02:58:19.543Z,17.64
2023-08-04T02:59:19.505Z,17.63
2023-08-04T03:00:19.525Z,17.63
2023-08-04T03:01:19.507Z,17.60
2023-08-04T03:02:19.493Z,17.63
2023-08-04T03:03:19.490Z,17.60
2023-08-04T03:04:19.459Z,17.60
2023-08-04T03:05:19.483Z,17.63
2023-08-04T03:06:19.425Z,17.64
2023-08-04T03:07:19.441Z,17.64
2023-08-04T03:08:19.431Z,17.64
2023-08-04T03:09:19.411Z,17.60
2023-08-04T03:10:19.410Z,17.60
2023-08-04T03:11:19.386Z,17.63
2023-08-04T03:12:19.356Z,17.60
2023-08-04T03:13:19.365Z,17.63
2023-08-04T03:14:19.328Z,17.63
2023-08-04T03:15:19.348Z,17.60
2023-08-04T03:16:19.379Z,17.63
2023-08-04T03:17:19.317Z,17.63
2023-08-04T03:18:19.305Z,17.60
2023-08-04T03:19:19.286Z,17.60
2023-08-04T03:20:19.278Z,17.60
2023-08-04T03:21:19.283Z,17.59
2023-08-04T03:22:19.246Z,17.63
2023-08-04T03:23:19.259Z,17.63
2023-08-04T03:24:19.239Z,17.60
2023-08-04T03:25:19.218Z,17.60
2023-08-04T03:26:19.249Z,17.60
2023-08-04T03:27:19.206Z,17.60
2023-08-04T03:28:19.185Z,17.60
2023-08-04T03:29:19.197Z,17.60
2023-08-04T03:30:19.172Z,17.59
2023-08-04T03:31:19.198Z,17.59
2023-08-04T03:32:19.150Z,17.54
2023-08-04T03:33:19.154Z,17.56
2023-08-04T03:34:19.200Z,17.56
2023-08-04T03:35:19.132Z,17.54
2023-08-04T03:36:19.131Z,17.54
2023-08-04T03:37:19.098Z,17.54
2023-08-04T03:38:19.122Z,17.53
2023-08-04T03:39:19.098Z,17.53
2023-08-04T03:40:19.065Z,17.53
2023-08-04T03:41:19.073Z,17.53
2023-08-04T03:42:19.051Z,17.51
2023-08-04T03:43:19.032Z,17.56
2023-08-04T03:44:19.022Z,17.53
2023-08-04T03:45:19.023Z,17.51
2023-08-04T03:46:19.050Z,17.53
2023-08-04T03:47:18.988Z,17.53
2023-08-04T03:48:18.973Z,17.53
2023-08-04T03:49:18.973Z,17.53
2023-08-04T03:50:18.953Z,17.54
2023-08-04T03:51:18.968Z,17.51
2023-08-04T03:52:18.929Z,17.48
2023-08-04T03:53:18.928Z,17.48
2023-08-04T03:54:18.906Z,17.45
2023-08-04T03:55:18.898Z,17.46
2023-08-04T03:56:18.906Z,17.44
2023-08-04T03:57:18.876Z,17.44
2023-08-04T03:58:18.893Z,17.42
2023-08-04T03:59:18.944Z,17.42
2023-08-04T04:00:18.848Z,17.44
2023-08-04T04:01:18.914Z,17.41
2023-08-04T04:02:18.848Z,17.41
2023-08-04T04:03:18.911Z,17.39
2023-08-04T04:04:18.834Z,17.39
2023-08-04T04:05:18.798Z,17.39
2023-08-04T04:06:18.803Z,17.38
2023-08-04T04:07:18.768Z,17.41
2023-08-04T04:08:18.805Z,17.41
2023-08-04T04:09:18.751Z,17.38
2023-08-04T04:10:18.733Z,17.33
2023-08-04T04:11:18.852Z,17.31
2023-08-04T04:12:18.726Z,17.31
2023-08-04T04:13:18.712Z,17.30
2023-08-04T04:14:18.698Z,17.27
2023-08-04T04:15:18.684Z,17.26
2023-08-04T04:16:18.744Z,17.27
2023-08-04T04:17:18.697Z,17.29
2023-08-04T04:18:18.648Z,17.29
2023-08-04T04:19:18.656Z,17.29
2023-08-04T04:20:18.651Z,17.30
2023-08-04T04:21:18.654Z,17.27
2023-08-04T04:22:18.612Z,17.27
2023-08-04T04:23:18.619Z,17.27
2023-08-04T04:24:18.594Z,17.31
2023-08-04T04:25:18.584Z,17.31
2023-08-04T04:26:18.571Z,17.37
2023-08-04T04:27:18.562Z,17.38
2023-08-04T04:28:18.545Z,17.38
2023-08-04T04:29:18.535Z,17.39
2023-08-04T04:30:18.518Z,17.41
2023-08-04T04:31:18.650Z,17.41
2023-08-04T04:32:18.515Z,17.42
2023-08-04T04:33:19.309Z,17.44
2023-08-04T04:34:18.482Z,17.42
2023-08-04T04:35:18.473Z,17.42
2023-08-04T04:36:18.491Z,17.41
2023-08-04T04:37:18.455Z,17.41
2023-08-04T04:38:18.439Z,17.39
2023-08-04T04:39:18.426Z,17.35
2023-08-04T04:40:18.419Z,17.30
2023-08-04T04:41:18.433Z,17.27
2023-08-04T04:42:18.405Z,17.27
2023-08-04T04:43:18.389Z,17.29
2023-08-04T04:44:18.373Z,17.29
2023-08-04T04:45:18.382Z,17.26
2023-08-04T04:46:18.358Z,17.27
2023-08-04T04:47:18.362Z,17.27
2023-08-04T04:48:18.329Z,17.29
2023-08-04T04:49:18.326Z,17.30
2023-08-04T04:50:18.319Z,17.29
2023-08-04T04:51:18.320Z,17.26
2023-08-04T04:52:18.291Z,17.24
2023-08-04T04:53:18.285Z,17.24
2023-08-04T04:54:18.264Z,17.26
2023-08-04T04:55:18.280Z,17.23
2023-08-04T04:56:18.266Z,17.24
2023-08-04T04:57:18.234Z,17.20
2023-08-04T04:58:18.232Z,17.22
2023-08-04T04:59:18.215Z,17.20
2023-08-04T05:00:18.199Z,17.20
2023-08-04T05:01:18.227Z,17.23
2023-08-04T05:02:18.192Z,17.22
2023-08-04T05:03:18.192Z,17.23
2023-08-04T05:04:18.187Z,17.23
2023-08-04T05:05:18.155Z,17.22
2023-08-04T05:06:18.150Z,17.24
2023-08-04T05:07:18.138Z,17.26
2023-08-04T05:08:18.122Z,17.23
2023-08-04T05:09:18.118Z,17.26
2023-08-04T05:10:18.107Z,17.27
2023-08-04T05:11:18.102Z,17.30
2023-08-04T05:12:18.073Z,17.37
2023-08-04T05:13:18.073Z,17.42
2023-08-04T05:14:18.051Z,17.48
2023-08-04T05:15:18.046Z,17.49
2023-08-04T05:16:18.131Z,17.53
2023-08-04T05:17:18.026Z,17.59
2023-08-04T05:18:18.018Z,17.64
2023-08-04T05:19:18.001Z,17.65
2023-08-04T05:20:18.006Z,17.71
2023-08-04T05:21:18.002Z,17.78
2023-08-04T05:22:17.992Z,17.79
2023-08-04T05:23:17.971Z,17.79
2023-08-04T05:24:17.947Z,17.79
2023-08-04T05:25:17.978Z,17.79
2023-08-04T05:26:17.940Z,17.76
2023-08-04T05:27:17.926Z,17.76
2023-08-04T05:28:17.906Z,17.75
2023-08-04T05:29:17.892Z,17.75
2023-08-04T05:30:17.888Z,17.79
2023-08-04T05:31:18.060Z,17.83
2023-08-04T05:32:17.895Z,17.88
2023-08-04T05:33:17.847Z,17.89
2023-08-04T05:34:17.870Z,17.88
2023-08-04T05:35:17.884Z,17.86
2023-08-04T05:36:17.828Z,17.89
2023-08-04T05:37:17.816Z,17.86
2023-08-04T05:38:17.801Z,17.88
2023-08-04T05:39:17.805Z,17.93
2023-08-04T05:40:17.775Z,17.93
2023-08-04T05:41:17.778Z,17.94
2023-08-04T05:42:17.747Z,17.91
2023-08-04T05:43:17.740Z,17.91
2023-08-04T05:44:17.730Z,17.89
2023-08-04T05:45:17.723Z,17.91
2023-08-04T05:46:17.743Z,17.85
2023-08-04T05:47:17.708Z,17.85
2023-08-04T05:48:17.730Z,17.88
2023-08-04T05:49:17.677Z,17.85
2023-08-04T05:50:17.687Z,17.86
2023-08-04T05:51:17.676Z,17.88
2023-08-04T05:52:17.672Z,17.86
2023-08-04T05:53:17.643Z,17.86
2023-08-04T05:54:17.637Z,17.86
2023-08-04T05:55:17.595Z,17.89
2023-08-04T05:56:17.608Z,17.89
2023-08-04T05:57:17.608Z,17.91
2023-08-04T05:58:17.582Z,17.94
2023-08-04T05:59:17.570Z,17.95
2023-08-04T06:00:17.568Z,17.93
2023-08-04T06:01:17.562Z,17.97
2023-08-04T06:02:17.550Z,18.01
2023-08-04T06:03:17.656Z,18.01
2023-08-04T06:04:17.537Z,18.00
2023-08-04T06:05:17.516Z,18.03
2023-08-04T06:06:17.513Z,18.00
2023-08-04T06:07:17.493Z,17.97
2023-08-04T06:08:17.504Z,17.95
2023-08-04T06:09:17.463Z,17.98
2023-08-04T06:10:17.507Z,18.00
2023-08-04T06:11:17.444Z,18.07
2023-08-04T06:12:17.450Z,18.09
2023-08-04T06:13:17.441Z,18.12
2023-08-04T06:14:17.407Z,18.10
2023-08-04T06:15:17.394Z,18.10
2023-08-04T06:16:17.456Z,18.09
2023-08-04T06:17:17.398Z,18.10
2023-08-04T06:18:17.429Z,18.13
2023-08-04T06:19:17.361Z,18.18
2023-08-04T06:20:17.356Z,18.23
2023-08-04T06:21:17.334Z,18.23
2023-08-04T06:22:17.357Z,18.19
2023-08-04T06:23:17.340Z,18.16
2023-08-04T06:24:17.314Z,18.22
2023-08-04T06:25:17.309Z,18.26
2023-08-04T06:26:17.291Z,18.31
2023-08-04T06:27:17.272Z,18.31
2023-08-04T06:28:17.263Z,18.33
2023-08-04T06:29:17.243Z,18.35
2023-08-04T06:30:17.232Z,18.37
2023-08-04T06:31:17.245Z,18.33
2023-08-04T06:32:17.225Z,18.34
2023-08-04T06:33:17.256Z,18.28
2023-08-04T06:34:17.208Z,18.26
2023-08-04T06:35:17.201Z,18.38
2023-08-04T06:36:17.178Z,18.43
2023-08-04T06:37:17.170Z,18.44
2023-08-04T06:38:17.155Z,18.55
2023-08-04T06:39:17.144Z,18.62
2023-08-04T06:40:17.150Z,18.60
2023-08-04T06:41:17.124Z,18.66
2023-08-04T06:42:17.128Z,18.73
2023-08-04T06:43:17.119Z,18.77
2023-08-04T06:44:17.095Z,18.74
2023-08-04T06:45:17.083Z,18.74
2023-08-04T06:46:17.104Z,18.78
2023-08-04T06:47:17.069Z,18.80
2023-08-04T06:48:17.055Z,18.85
2023-08-04T06:49:17.079Z,18.86
2023-08-04T06:50:17.028Z,18.88
2023-08-04T06:51:17.013Z,18.86
2023-08-04T06:52:17.024Z,18.89
2023-08-04T06:53:17.007Z,18.90
2023-08-04T06:54:17.004Z,18.85
2023-08-04T06:55:16.994Z,18.88
2023-08-04T06:56:16.965Z,18.90
2023-08-04T06:57:16.973Z,18.92
2023-08-04T06:58:16.944Z,18.92
2023-08-04T06:59:16.939Z,18.85
2023-08-04T07:00:16.940Z,18.90
2023-08-04T07:01:16.989Z,18.88
2023-08-04T07:02:17.082Z,18.86
2023-08-04T07:03:17.019Z,18.85
2023-08-04T07:04:16.894Z,18.86
2023-08-04T07:05:16.896Z,18.92
2023-08-04T07:06:16.887Z,18.96
2023-08-04T07:07:16.871Z,18.99
2023-08-04T07:08:16.833Z,19.00
2023-08-04T07:09:16.831Z,19.04
2023-08-04T07:10:16.814Z,19.05
2023-08-04T07:11:16.896Z,19.05
2023-08-04T07:12:16.833Z,19.11
2023-08-04T07:13:16.798Z,19.15
2023-08-04T07:14:16.799Z,19.23
2023-08-04T07:15:16.760Z,19.26
2023-08-04T07:16:16.768Z,19.29
2023-08-04T07:17:16.765Z,19.19
2023-08-04T07:18:16.762Z,19.11
2023-08-04T07:19:16.745Z,19.05
2023-08-04T07:20:16.730Z,19.00
2023-08-04T07:21:16.707Z,18.99
2023-08-04T07:22:16.715Z,19.05
2023-08-04T07:23:16.676Z,19.07
2023-08-04T07:24:16.699Z,19.08
2023-08-04T07:25:16.696Z,19.14
2023-08-04T07:26:16.672Z,19.26
2023-08-04T07:27:16.664Z,19.29
2023-08-04T07:28:16.629Z,19.31
2023-08-04T07:29:16.611Z,19.34
2023-08-04T07:30:16.650Z,19.36
2023-08-04T07:31:16.669Z,19.37
2023-08-04T07:32:16.601Z,19.39
2023-08-04T07:33:16.567Z,19.45
2023-08-04T07:34:16.580Z,19.44
2023-08-04T07:35:16.551Z,19.41
2023-08-04T07:36:16.548Z,19.34
2023-08-04T07:37:16.554Z,19.39
2023-08-04T07:38:16.556Z,19.36
2023-08-04T07:39:16.520Z,19.34
2023-08-04T07:40:16.504Z,19.34
2023-08-04T07:41:16.486Z,19.39
2023-08-04T07:42:16.493Z,19.42
2023-08-04T07:43:16.488Z,19.45
2023-08-04T07:44:16.463Z,19.48
2023-08-04T07:45:16.478Z,19.60
2023-08-04T07:46:16.468Z,19.63
2023-08-04T07:47:16.482Z,19.70
2023-08-04T07:48:16.418Z,19.60
2023-08-04T07:49:16.402Z,19.63
2023-08-04T07:50:16.393Z,19.54
2023-08-04T07:51:16.384Z,19.48
2023-08-04T07:52:16.385Z,19.48
2023-08-04T07:53:16.377Z,19.46
2023-08-04T07:54:16.387Z,19.45
2023-08-04T07:55:16.338Z,19.42
2023-08-04T07:56:16.334Z,19.36
2023-08-04T07:57:16.316Z,19.33
2023-08-04T07:58:16.343Z,19.30
2023-08-04T07:59:16.299Z,19.30
2023-08-04T08:00:16.302Z,19.33
2023-08-04T08:01:16.529Z,19.31
2023-08-04T08:02:16.269Z,19.24
2023-08-04T08:03:16.313Z,19.19
2023-08-04T08:04:16.330Z,19.27
2023-08-04T08:05:16.236Z,19.36
2023-08-04T08:06:16.269Z,19.45
2023-08-04T08:07:16.213Z,19.54
2023-08-04T08:08:16.229Z,19.69
2023-08-04T08:09:16.199Z,19.82
2023-08-04T08:10:16.188Z,19.92
2023-08-04T08:11:16.200Z,19.94
2023-08-04T08:12:16.168Z,19.92
2023-08-04T08:13:16.186Z,20.03
2023-08-04T08:14:16.160Z,20.22
2023-08-04T08:15:16.167Z,20.36
2023-08-04T08:16:18.987Z,20.41
2023-08-04T08:17:16.111Z,20.48
2023-08-04T08:18:16.124Z,20.50
2023-08-04T08:19:16.091Z,20.53
2023-08-04T08:20:16.085Z,20.53
2023-08-04T08:21:16.108Z,20.55
2023-08-04T08:22:16.063Z,20.55
2023-08-04T08:23:24.765Z,20.52
2023-08-04T08:24:16.036Z,20.52
2023-08-04T08:25:16.027Z,20.57
2023-08-04T08:26:16.021Z,20.55
2023-08-04T08:27:16.022Z,20.59
2023-08-04T08:28:16.009Z,20.56
2023-08-04T08:29:15.999Z,20.50
2023-08-04T08:30:15.993Z,20.41
2023-08-04T08:31:16.025Z,20.41
2023-08-04T08:32:15.962Z,20.43
2023-08-04T08:33:15.947Z,20.47
2023-08-04T08:34:15.934Z,20.59
2023-08-04T08:35:15.907Z,20.63
2023-08-04T08:36:15.925Z,20.67
2023-08-04T08:37:15.890Z,20.74
2023-08-04T08:38:15.931Z,20.71
2023-08-04T08:39:15.876Z,20.65
2023-08-04T08:40:15.879Z,20.62
2023-08-04T08:41:15.858Z,20.60
2023-08-04T08:42:15.865Z,20.59
2023-08-04T08:43:15.844Z,20.53
2023-08-04T08:44:15.856Z,20.43
2023-08-04T08:45:15.813Z,20.37
2023-08-04T08:46:15.806Z,20.37
2023-08-04T08:47:15.810Z,20.40
2023-08-04T08:48:15.788Z,20.40
2023-08-04T08:49:15.798Z,20.40
2023-08-04T08:50:15.777Z,20.55
2023-08-04T08:51:17.551Z,20.69
2023-08-04T08:52:15.761Z,20.84
2023-08-04T08:53:15.727Z,20.96
2023-08-04T08:54:15.736Z,21.03
2023-08-04T08:55:15.703Z,21.14
2023-08-04T08:56:15.700Z,21.22
2023-08-04T08:57:15.691Z,21.33
2023-08-04T08:58:15.685Z,21.24
2023-08-04T08:59:15.686Z,21.21
2023-08-04T09:00:15.658Z,21.17
2023-08-04T09:01:16.688Z,21.14
2023-08-04T09:02:15.671Z,21.08
2023-08-04T09:03:15.613Z,21.03
2023-08-04T09:04:15.639Z,21.02
2023-08-04T09:05:15.708Z,20.93
2023-08-04T09:06:15.600Z,20.97
2023-08-04T09:07:15.593Z,20.92
2023-08-04T09:08:15.571Z,20.97
2023-08-04T09:09:15.553Z,21.05
2023-08-04T09:10:17.038Z,21.02
2023-08-04T09:11:15.523Z,21.00
2023-08-04T09:12:15.535Z,21.06
2023-08-04T09:13:15.520Z,21.05
2023-08-04T09:14:15.561Z,21.08
2023-08-04T09:15:15.514Z,21.10
2023-08-04T09:16:15.491Z,21.18
2023-08-04T09:17:15.490Z,21.21
2023-08-04T09:18:15.462Z,21.26
2023-08-04T09:19:15.436Z,21.24
2023-08-04T09:20:15.478Z,21.29
2023-08-04T09:21:15.418Z,21.36
2023-08-04T09:22:15.418Z,21.37
2023-08-04T09:23:15.415Z,21.40
2023-08-04T09:24:15.402Z,21.36
2023-08-04T09:25:15.449Z,21.37
2023-08-04T09:26:15.387Z,21.37
2023-08-04T09:27:15.373Z,21.40
2023-08-04T09:28:15.370Z,21.45
2023-08-04T09:29:15.362Z,21.45
2023-08-04T09:30:15.348Z,21.43
2023-08-04T09:31:15.440Z,21.43
2023-08-04T09:32:15.384Z,21.43
2023-08-04T09:33:15.330Z,21.39
2023-08-04T09:34:15.306Z,21.37
2023-08-04T09:35:15.293Z,21.42
2023-08-04T09:36:15.278Z,21.45
2023-08-04T09:37:15.245Z,21.50
2023-08-04T09:38:15.263Z,21.58
2023-08-04T09:39:15.262Z,21.73
2023-08-04T09:40:15.251Z,21.93
2023-08-04T09:41:15.286Z,22.17
2023-08-04T09:42:15.211Z,22.33
2023-08-04T09:43:15.226Z,22.54
2023-08-04T09:44:15.198Z,22.56
2023-08-04T09:45:15.261Z,22.58
2023-08-04T09:46:15.298Z,22.69
2023-08-04T09:47:15.172Z,22.68
2023-08-04T09:48:15.265Z,22.63
2023-08-04T09:49:15.154Z,22.50
2023-08-04T09:50:15.219Z,22.30
2023-08-04T09:51:15.102Z,22.25
2023-08-04T09:52:15.107Z,22.17
2023-08-04T09:53:15.163Z,22.13
2023-08-04T09:54:15.097Z,22.10
2023-08-04T09:55:15.122Z,22.07
2023-08-04T09:56:15.058Z,22.01
2023-08-04T09:57:15.054Z,21.95
2023-08-04T09:58:15.040Z,21.96
2023-08-04T09:59:15.057Z,22.05
2023-08-04T10:00:15.055Z,22.10
2023-08-04T10:01:15.050Z,22.29
2023-08-04T10:02:15.117Z,22.41
2023-08-04T10:03:15.161Z,22.48
2023-08-04T10:04:15.091Z,22.43
2023-08-04T10:05:14.976Z,22.35
2023-08-04T10:06:14.948Z,22.33
2023-08-04T10:07:14.964Z,22.38
2023-08-04T10:08:14.993Z,22.41
2023-08-04T10:09:14.923Z,22.47
2023-08-04T10:10:14.909Z,22.48
2023-08-04T10:11:14.917Z,22.51
2023-08-04T10:12:14.877Z,22.59
2023-08-04T10:13:14.897Z,22.59
2023-08-04T10:14:14.931Z,22.69
2023-08-04T10:15:14.860Z,22.78
2023-08-04T10:16:14.954Z,22.72
2023-08-04T10:17:14.954Z,22.84
2023-08-04T10:18:14.858Z,22.84
2023-08-04T10:19:14.819Z,22.68
2023-08-04T10:20:14.829Z,22.53
2023-08-04T10:21:14.788Z,22.45
2023-08-04T10:22:14.819Z,22.45
2023-08-04T10:23:14.812Z,22.35
2023-08-04T10:24:14.761Z,22.29
2023-08-04T10:25:14.803Z,22.20
2023-08-04T10:26:14.885Z,22.04
2023-08-04T10:27:14.747Z,22.05
2023-08-04T10:28:14.741Z,22.03
2023-08-04T10:29:14.772Z,21.93
2023-08-04T10:30:14.704Z,21.92
2023-08-04T10:31:14.722Z,21.90
2023-08-04T10:32:14.710Z,21.84
2023-08-04T10:33:14.672Z,21.84
2023-08-04T10:34:14.699Z,21.84
2023-08-04T10:35:14.676Z,21.74
2023-08-04T10:36:14.654Z,21.77
2023-08-04T10:37:14.694Z,21.79
2023-08-04T10:38:14.655Z,21.70
2023-08-04T10:39:14.618Z,21.70
2023-08-04T10:40:14.586Z,21.66
2023-08-04T10:41:14.608Z,21.59
2023-08-04T10:42:14.635Z,21.59
2023-08-04T10:43:14.561Z,21.59
2023-08-04T10:44:14.610Z,21.72
2023-08-04T10:45:14.571Z,21.76
2023-08-04T10:46:14.547Z,21.81
2023-08-04T10:47:14.545Z,21.84
2023-08-04T10:48:14.741Z,21.82
2023-08-04T10:49:14.559Z,21.76
2023-08-04T10:50:14.524Z,21.70
2023-08-04T10:51:14.465Z,21.73
2023-08-04T10:52:14.456Z,21.89
2023-08-04T10:53:14.493Z,22.08
2023-08-04T10:54:14.483Z,22.26
2023-08-04T10:55:14.434Z,22.40
2023-08-04T10:56:14.469Z,22.47
2023-08-04T10:57:14.411Z,22.51
2023-08-04T10:58:14.431Z,22.40
2023-08-04T10:59:14.474Z,22.30
2023-08-04T11:00:14.372Z,22.28
2023-08-04T11:01:14.382Z,22.22
2023-08-04T11:02:14.440Z,21.98
2023-08-04T11:03:14.412Z,21.92
2023-08-04T11:04:14.371Z,22.05
2023-08-04T11:05:14.456Z,22.01
2023-08-04T11:06:14.326Z,21.85
2023-08-04T11:07:14.306Z,21.70
2023-08-04T11:08:14.316Z,21.77
2023-08-04T11:09:14.295Z,21.95
2023-08-04T11:10:14.349Z,21.98
2023-08-04T11:11:14.325Z,22.04
2023-08-04T11:12:14.266Z,22.05
2023-08-04T11:13:14.246Z,22.07
2023-08-04T11:14:14.283Z,22.14
2023-08-04T11:15:14.241Z,22.22
2023-08-04T11:16:14.229Z,22.29
2023-08-04T11:17:14.326Z,22.35
2023-08-04T11:18:14.262Z,22.44
2023-08-04T11:19:14.188Z,22.44
2023-08-04T11:21:14.165Z,22.51
2023-08-04T11:22:14.146Z,22.48
2023-08-04T11:23:14.185Z,22.47
2023-08-04T11:24:14.117Z,22.53
2023-08-04T11:25:14.144Z,22.56
2023-08-04T11:26:14.150Z,22.50
2023-08-04T11:27:14.103Z,22.51
2023-08-04T11:28:14.090Z,22.60
2023-08-04T11:29:14.122Z,22.59
2023-08-04T11:30:14.359Z,22.66
2023-08-04T11:31:14.214Z,22.43
2023-08-04T11:32:14.116Z,22.17
2023-08-04T11:33:14.089Z,22.11
2023-08-04T11:34:14.012Z,22.13
2023-08-04T11:35:14.137Z,22.19
2023-08-04T11:36:14.051Z,22.23
2023-08-04T11:37:13.995Z,22.35
2023-08-04T11:38:13.992Z,22.44
2023-08-04T11:39:13.989Z,22.41
2023-08-04T11:40:13.962Z,22.53
2023-08-04T11:41:13.975Z,22.53
2023-08-04T11:42:13.956Z,22.38
2023-08-04T11:43:13.922Z,22.32
2023-08-04T11:44:13.937Z,22.28
2023-08-04T11:45:13.939Z,22.25
2023-08-04T11:46:13.923Z,22.20
2023-08-04T11:47:14.032Z,22.23
2023-08-04T11:48:13.891Z,22.29
2023-08-04T11:49:13.881Z,22.32
2023-08-04T11:50:13.901Z,22.36
2023-08-04T11:51:13.866Z,22.40
2023-08-04T11:52:13.839Z,22.47
2023-08-04T11:53:13.855Z,22.47
2023-08-04T11:54:13.828Z,22.51
2023-08-04T11:55:13.797Z,22.53
2023-08-04T11:56:29.028Z,22.50
2023-08-04T11:57:13.796Z,22.51
2023-08-04T11:58:13.773Z,22.53
2023-08-04T11:59:13.961Z,22.59
2023-08-04T12:00:13.737Z,22.56
2023-08-04T12:01:13.764Z,22.62
2023-08-04T12:02:14.033Z,22.62
2023-08-04T12:03:13.946Z,22.59
2023-08-04T12:04:15.599Z,22.59
2023-08-04T12:05:13.953Z,22.63
2023-08-04T12:06:13.885Z,22.66
2023-08-04T12:07:13.677Z,22.65
2023-08-04T12:08:13.765Z,22.72
2023-08-04T12:09:13.660Z,22.75
2023-08-04T12:10:13.654Z,22.73
2023-08-04T12:11:13.701Z,22.77
2023-08-04T12:12:13.638Z,22.70
2023-08-04T12:13:13.615Z,22.78
2023-08-04T12:14:13.626Z,22.78
2023-08-04T12:15:13.615Z,22.81
2023-08-04T12:16:13.602Z,22.85
2023-08-04T12:17:13.632Z,22.88
2023-08-04T12:18:13.592Z,22.90
2023-08-04T12:19:13.540Z,22.93
2023-08-04T12:20:13.684Z,22.99
2023-08-04T12:21:13.519Z,22.99
2023-08-04T12:22:13.511Z,23.06
2023-08-04T12:23:13.541Z,23.06
2023-08-04T12:24:13.490Z,23.06
2023-08-04T12:25:13.490Z,23.17
2023-08-04T12:26:13.565Z,23.24
2023-08-04T12:27:13.478Z,23.22
2023-08-04T12:28:13.440Z,23.24
2023-08-04T12:29:13.459Z,23.22
2023-08-04T12:30:13.415Z,23.10
2023-08-04T12:31:15.921Z,23.02
2023-08-04T12:32:13.524Z,22.93
2023-08-04T12:33:13.443Z,22.87
2023-08-04T12:34:13.375Z,22.87
2023-08-04T12:35:13.475Z,22.96
2023-08-04T12:36:13.352Z,23.00
2023-08-04T12:37:13.375Z,23.09
2023-08-04T12:38:13.371Z,23.14
2023-08-04T12:39:13.327Z,23.13
2023-08-04T12:40:13.307Z,23.13
2023-08-04T12:41:13.349Z,23.13
2023-08-04T12:42:13.314Z,23.21
2023-08-04T12:43:13.297Z,23.34
2023-08-04T12:44:13.310Z,23.25
2023-08-04T12:45:13.264Z,23.27
2023-08-04T12:46:13.279Z,23.33
2023-08-04T12:47:13.260Z,23.31
2023-08-04T12:48:13.303Z,23.37
2023-08-04T12:49:13.278Z,23.36
2023-08-04T12:50:13.399Z,23.37
2023-08-04T12:51:13.232Z,23.37
2023-08-04T12:52:13.187Z,23.44
2023-08-04T12:53:13.238Z,23.52
2023-08-04T12:54:13.161Z,23.61
2023-08-04T12:55:13.159Z,23.83
2023-08-04T12:56:13.233Z,23.93